Terminal Aerodrome Forecast
Issued by NWS Sterling, VA

Home | Current Version | Previous Version | Text Only | Print | Product List | Glossary On
Versions: 1 2 3 4 5 6 7 8 9 10 11 12 13 14 15 16 17 18 19 20 21 22 23 24
000
FTUS41 KLWX 290900 AAA
TAFDCA
TAF AMD
KDCA 290910Z 2909/3006 VRB04KT P6SM BKN100
     FM291500 16008G16KT P6SM SCT050 BKN090
     FM292100 16010KT 3SM -RAPL BKN025 OVC050
     FM300000 17008KT P6SM BKN050
     FM300400 22008KT P6SM BKN050=

USA.gov is the U.S. government's official web portal to all federal, state and local government web resources and services.